Relevés horaires Chievres (Belgique)


Relevés horaires à Chievres - Dimanche 18 Sept. 2022
Heure UTC1 Température [°C] Vent [km/h] Hum. [%] Pres.4 [hPa] Visi. [Km] Nébu. [octa] Préc.5 [mm] Cond.
2m. Res. Ros. Dir.2 Vit. Moy. Raf.3
23:00 10.3 10.3 9.2 ONO 3.7 -- 7.4 93 1020.3(0.6/3h) 20 -- -- --
22:00 11.2 11.2 9.4 ONO 3.7 -- 9.3 89 1020.2(0.8/3h) 20 -- -- NA
21:00 11.6 11.4 9.4 NO 5.6 -- 20.4 86 1019.7(1.6/3h) 20 -- -- NA
20:00 11.8 11.2 9.7 NNO 7.4 -- 20.4 87 1019.7(1.5/3h) 20 -- -- NA
19:00 12.1 11 10.2 NNO 11.1 -- 20.4 88 1019.2(1.1/3h) 19 -- -- Il y a de la pluie faible et continue à la station au moment de l'observation
18:00 14.0 13.8 8.5 ONO 7.4 -- 22.2 69 1018.1(0.1/3h) 20 -- -- --
17:00 14.6 14.2 8.1 ONO 9.3 -- 18.5 65 1018(-0.3/3h) 20 -- -- --
16:00 14.6 13.8 8.2 ONO 13.0 -- 20.4 65 1018(-0.6/3h) 20 -- -- --
15:00 14.8 14 7.6 ONO 13.0 -- 22.2 62 1018(-0.5/3h) 20 -- -- --
14:00 14.9 14.4 8.6 ONO 11.1 -- 20.4 66 1018.2(-0.3/3h) 20 -- -- --
13:00 15.6 14.8 8.3 O 14.8 -- 20.4 62 1018.5(-0.2/3h) 20 -- -- --
12:00 14.9 14 7.3 O 14.8 -- 22.2 60 1018.5(-0.3/3h) 20 -- -- --
11:00 13.9 12.9 9.0 O 13.0 -- 18.5 72 1018.7(0.0/3h) 20 -- -- --
10:00 13.5 12.9 9.0 O 9.3 -- 14.8 74 1018.7(0.0/3h) 20 -- -- --
09:00 12.3 11.8 8.1 O 7.4 -- 13.0 76 1018.8(0.2/3h) 20 -- -- --
08:00 11.6 11.4 7.6 OSO 5.6 -- 9.3 76 1018.7(0.0/3h) 20 -- -- --
07:00 10.1 9.3 6.6 OSO 7.4 -- 9.3 79 1018.8(0.0/3h) 20 -- -- --
06:00 9.0 8.4 6.1 OSO 5.6 -- 9.3 82 1018.7(-0.5/3h) 20 -- 0.2/12h
--
05:00 9.1 8.6 6.2 OSO 5.6 -- 9.3 82 1018.8(-0.7/3h) 20 -- -- --
04:00 9.3 8.8 6.4 OSO 5.6 -- 9.3 82 1019(-0.6/3h) 20 -- -- --
03:00 9.3 8.8 6.6 OSO 5.6 -- 9.3 83 1019.2(-0.4/3h) 20 -- -- --
02:00 9.1 8.6 6.7 OSO 5.6 -- 9.3 85 1019.7(-0.3/3h) 20 -- -- --
01:00 9.1 8.6 7.0 OSO 5.6 -- 7.4 87 1019.7(-0.4/3h) 20 -- -- --
00:00 10.6 10.3 7.2 OSO 5.6 -- 9.3 79 1019.7(-0.3/3h) 20 -- 0.2/6h
NA

1 Coordinated Universal Time. Actuellement il est 16:00 locale et 15:00 UTC.

2 Le vent souffle depuis la direction indiquée vers la direction oposée.

3 Les rafales max. sont disponible 40 min après l'heure du relevé.

4 Pour les stations d'altitude (plus de 600m) le géopotentiel du niveau le plus proche de la pression obligatoire est indiqué.

5 Les stations disposant d'un diffuseur peuvent indiquer "trace". Cela signifie que des précipitations ont touchés le sol mais que la quantité est inférieure à 0.1 mm.

Récapitulatif de la journée
Température [°C] Vent [km/h] Ensoleillement4 [h] Precipitations totale5 [mm] Pression [Hpa]
Min1 Max.2 Moy.3 Max. Min Max.
8.6 16.1 0 22.2 0 h 0 min 0 1018.0 1020.3

1 Température minimale relevée entre 18:00 UTC la veille et 18:00 UTC le jour donné.

2 Température maximale relevée entre 06:00 UTC le jour donné et 06:00 UTC le lendemain.

3 Vent moyen de la journée basé sur les relevés horaires.

4 Ensoleillement en heures relevé entre 06:00 UTC la veille et 06:00 UTC le jour donné.

5 Précipitations totales tombées entre 06:00 UTC la jour donné et 06:00 UTC le lendemain.

Graphiques horaires